Time;durP1;ratioP1;P1;durP2;ratioP2;P2;SDS_P1;SDS_P2;PMS_P1;PMS_P2;Temp;Humidity;BMP_temperature;BMP_pressure;BME280_temperature;BME280_humidity;BME280_pressure;Samples;Min_cycle;Max_cycle;Signal;HPM_P1;HPM_P2
2023/03/16 00:02:03;;;;;;;0.20;0.20;;;;;;;;;;5083536;28;20043;-81
2023/03/16 00:04:29;;;;;;;0.10;0.10;;;;;;;;;;5106122;28;20024;-83
2023/03/16 00:06:55;;;;;;;0.30;0.30;;;;;;;;;;5079566;28;20039;-82
2023/03/16 00:09:21;;;;;;;0.20;0.20;;;;;;;;;;5083976;28;20048;-85
2023/03/16 00:11:46;;;;;;;0.25;0.20;;;;;;;;;;5081270;28;20031;-82
2023/03/16 00:14:12;;;;;;;0.22;0.22;;;;;;;;;;5080835;28;20036;-82
2023/03/16 00:16:38;;;;;;;0.20;0.20;;;;;;;;;;5088316;28;20479;-83
2023/03/16 00:19:04;;;;;;;0.22;0.22;;;;;;;;;;5083902;28;20028;-82
2023/03/16 00:21:30;;;;;;;0.70;0.43;;;;;;;;;;5089505;28;20063;-80
2023/03/16 00:23:57;;;;;;;0.77;0.45;;;;;;;;;;5104555;28;20032;-82
2023/03/16 00:26:22;;;;;;;0.43;0.28;;;;;;;;;;5080452;28;20111;-83
2023/03/16 00:28:48;;;;;;;0.75;0.55;;;;;;;;;;5088033;28;20107;-81
2023/03/16 00:31:13;;;;;;;1.17;0.32;;;;;;;;;;5085584;28;20031;-82
2023/03/16 00:33:41;;;;;;;0.20;0.20;;;;;;;;;;5083811;28;20044;-81
2023/03/16 00:36:10;;;;;;;0.75;0.38;;;;;;;;;;5082875;28;20358;-84
2023/03/16 00:38:38;;;;;;;0.13;0.13;;;;;;;;;;5090600;28;20016;-81
2023/03/16 00:41:05;;;;;;;1.75;0.93;;;;;;;;;;5089982;28;20078;-83
2023/03/16 00:43:39;;;;;;;0.20;0.20;;;;;;;;;;5086762;28;20067;-81
2023/03/16 00:46:07;;;;;;;0.30;0.30;;;;;;;;;;5089006;28;20024;-81
2023/03/16 00:48:34;;;;;;;0.38;0.28;;;;;;;;;;5087655;28;20035;-82
2023/03/16 00:51:01;;;;;;;0.22;0.22;;;;;;;;;;5084178;28;20070;-82
2023/03/16 00:53:27;;;;;;;0.10;0.10;;;;;;;;;;5093257;28;20027;-82
2023/03/16 00:55:52;;;;;;;0.10;0.10;;;;;;;;;;5090704;28;20170;-83
2023/03/16 00:58:18;;;;;;;0.13;0.13;;;;;;;;;;5081494;28;20036;-83
2023/03/16 01:00:45;;;;;;;0.15;0.15;;;;;;;;;;5086176;28;20059;-84
2023/03/16 01:03:11;;;;;;;0.20;0.20;;;;;;;;;;5083668;28;20027;-83
2023/03/16 01:05:40;;;;;;;0.32;0.32;;;;;;;;;;5086674;28;20039;-80
2023/03/16 01:08:07;;;;;;;0.60;0.47;;;;;;;;;;5080258;28;20036;-83
2023/03/16 01:10:36;;;;;;;0.40;0.40;;;;;;;;;;5083880;28;20040;-81
2023/03/16 01:13:02;;;;;;;0.22;0.22;;;;;;;;;;5084473;28;20649;-83
2023/03/16 01:15:29;;;;;;;0.10;0.10;;;;;;;;;;5086566;28;20024;-83
2023/03/16 01:17:55;;;;;;;0.47;0.47;;;;;;;;;;5089140;28;20056;-79
2023/03/16 01:20:21;;;;;;;0.17;0.17;;;;;;;;;;5089731;28;20048;-81
2023/03/16 01:22:46;;;;;;;0.10;0.10;;;;;;;;;;5110133;28;20479;-83
2023/03/16 01:25:12;;;;;;;0.20;0.20;;;;;;;;;;5082597;28;20036;-83
2023/03/16 01:27:37;;;;;;;0.20;0.20;;;;;;;;;;5084375;28;20032;-82
2023/03/16 01:30:04;;;;;;;1.65;0.20;;;;;;;;;;5089608;28;20063;-83
2023/03/16 01:32:30;;;;;;;0.10;0.10;;;;;;;;;;5085286;28;20449;-83
2023/03/16 01:34:55;;;;;;;0.40;0.40;;;;;;;;;;5088563;28;20098;-83
2023/03/16 01:37:21;;;;;;;0.20;0.20;;;;;;;;;;5087376;28;20055;-81
2023/03/16 01:39:48;;;;;;;0.30;0.30;;;;;;;;;;5083037;28;20020;-81
2023/03/16 01:42:13;;;;;;;0.35;0.35;;;;;;;;;;5083938;28;20109;-83
2023/03/16 01:45:00;;;;;;;0.10;0.10;;;;;;;;;;5090964;28;20438;-82
2023/03/16 01:47:26;;;;;;;0.20;0.20;;;;;;;;;;5086056;28;20127;-83
2023/03/16 01:49:54;;;;;;;0.40;0.40;;;;;;;;;;5088682;28;20111;-85
2023/03/16 01:52:23;;;;;;;0.40;0.40;;;;;;;;;;5084489;28;20388;-83
2023/03/16 01:55:03;;;;;;;0.40;0.30;;;;;;;;;;5081786;28;20475;-83
2023/03/16 01:57:35;;;;;;;0.10;0.10;;;;;;;;;;5089633;28;20107;-81
2023/03/16 02:00:23;;;;;;;0.20;0.20;;;;;;;;;;5082418;28;20023;-80
2023/03/16 02:02:54;;;;;;;0.20;0.20;;;;;;;;;;5086092;28;20383;-82
2023/03/16 02:05:23;;;;;;;1.17;0.25;;;;;;;;;;5084451;28;20476;-82
2023/03/16 02:07:57;;;;;;;0.30;0.30;;;;;;;;;;5089023;28;20107;-84
2023/03/16 02:10:24;;;;;;;0.20;0.20;;;;;;;;;;5086448;28;20024;-85
2023/03/16 02:12:51;;;;;;;0.28;0.28;;;;;;;;;;5087342;28;20036;-83
2023/03/16 02:15:17;;;;;;;0.17;0.17;;;;;;;;;;5086073;28;20150;-83
2023/03/16 02:17:45;;;;;;;0.13;0.13;;;;;;;;;;5080863;28;20033;-83
2023/03/16 02:20:21;;;;;;;0.28;0.28;;;;;;;;;;5090585;28;20035;-81
2023/03/16 02:22:49;;;;;;;0.10;0.10;;;;;;;;;;5101181;27;20031;-83
2023/03/16 02:25:17;;;;;;;0.20;0.20;;;;;;;;;;5083155;28;20032;-84
2023/03/16 02:27:50;;;;;;;0.30;0.30;;;;;;;;;;5086434;28;20028;-82
2023/03/16 02:30:17;;;;;;;0.10;0.10;;;;;;;;;;5104779;28;20028;-83
2023/03/16 02:32:45;;;;;;;0.63;0.40;;;;;;;;;;5076124;28;20052;-81
2023/03/16 02:35:12;;;;;;;0.10;0.10;;;;;;;;;;5080210;28;20061;-81
2023/03/16 02:37:38;;;;;;;0.65;0.65;;;;;;;;;;5082839;28;20024;-85
2023/03/16 02:40:23;;;;;;;0.20;0.20;;;;;;;;;;5084725;28;20430;-83
2023/03/16 02:43:01;;;;;;;0.38;0.38;;;;;;;;;;5088121;28;20387;-83
2023/03/16 02:45:34;;;;;;;0.52;0.38;;;;;;;;;;5084628;28;20135;-80
2023/03/16 02:48:04;;;;;;;0.20;0.20;;;;;;;;;;5082594;28;20100;-85
2023/03/16 02:50:30;;;;;;;0.20;0.20;;;;;;;;;;5083681;28;20498;-81
2023/03/16 02:52:55;;;;;;;0.20;0.20;;;;;;;;;;5087580;28;20040;-80
2023/03/16 02:55:20;;;;;;;0.10;0.10;;;;;;;;;;5088726;28;20453;-82
2023/03/16 02:57:47;;;;;;;0.20;0.20;;;;;;;;;;5080068;28;20415;-84
2023/03/16 03:00:17;;;;;;;0.20;0.20;;;;;;;;;;5081133;28;20032;-82
2023/03/16 03:02:44;;;;;;;0.20;0.20;;;;;;;;;;5088127;28;20077;-82
2023/03/16 03:05:11;;;;;;;0.28;0.28;;;;;;;;;;5078709;28;20024;-82
2023/03/16 03:07:37;;;;;;;0.10;0.10;;;;;;;;;;5087110;28;20087;-83
2023/03/16 03:10:04;;;;;;;0.10;0.10;;;;;;;;;;5080267;28;20476;-81
2023/03/16 03:12:34;;;;;;;0.10;0.10;;;;;;;;;;5082656;28;20055;-81
2023/03/16 03:14:59;;;;;;;0.30;0.30;;;;;;;;;;5087188;28;20422;-80
2023/03/16 03:17:29;;;;;;;0.20;0.20;;;;;;;;;;5082892;28;20107;-82
2023/03/16 03:19:58;;;;;;;1.13;1.13;;;;;;;;;;5084269;28;20020;-82
2023/03/16 03:22:25;;;;;;;;;;;;;;;;;;5087351;28;20032;-81
2023/03/16 03:24:51;;;;;;;0.15;0.15;;;;;;;;;;5082837;28;19922;-83
2023/03/16 03:27:16;;;;;;;0.40;0.40;;;;;;;;;;5086863;28;20033;-81
2023/03/16 03:29:43;;;;;;;0.20;0.20;;;;;;;;;;5084534;28;20020;-83
2023/03/16 03:32:09;;;;;;;0.10;0.10;;;;;;;;;;5083757;28;20103;-83
2023/03/16 03:34:34;;;;;;;0.10;0.10;;;;;;;;;;5086921;28;20505;-85
2023/03/16 03:37:00;;;;;;;0.10;0.10;;;;;;;;;;5078492;28;20021;-84
2023/03/16 03:39:25;;;;;;;0.15;0.15;;;;;;;;;;5078678;28;20379;-81
2023/03/16 03:41:54;;;;;;;0.10;0.10;;;;;;;;;;5079585;28;20649;-83
2023/03/16 03:44:23;;;;;;;0.40;0.30;;;;;;;;;;5084087;28;20028;-83
2023/03/16 03:46:50;;;;;;;0.20;0.20;;;;;;;;;;5084950;28;20023;-83
2023/03/16 03:49:16;;;;;;;1.65;0.30;;;;;;;;;;5082319;28;20063;-83
2023/03/16 03:51:42;;;;;;;0.20;0.20;;;;;;;;;;5084587;28;20031;-82
2023/03/16 03:54:08;;;;;;;0.20;0.20;;;;;;;;;;5080422;28;20028;-82
2023/03/16 03:56:33;;;;;;;0.10;0.10;;;;;;;;;;5084910;28;20070;-80
2023/03/16 03:58:59;;;;;;;0.22;0.22;;;;;;;;;;5084493;28;20036;-83
2023/03/16 04:01:24;;;;;;;0.20;0.20;;;;;;;;;;5082631;28;20042;-83
2023/03/16 04:03:50;;;;;;;0.28;0.28;;;;;;;;;;5083985;28;20059;-83
2023/03/16 04:06:15;;;;;;;0.43;0.43;;;;;;;;;;5086118;28;20079;-81
2023/03/16 04:08:41;;;;;;;0.20;0.20;;;;;;;;;;5080783;28;20028;-81
2023/03/16 04:11:07;;;;;;;0.50;0.50;;;;;;;;;;5083699;28;20052;-81
2023/03/16 04:13:32;;;;;;;0.15;0.15;;;;;;;;;;5084575;28;20063;-83
2023/03/16 04:16:01;;;;;;;0.20;0.20;;;;;;;;;;5084625;28;20020;-84
2023/03/16 04:18:27;;;;;;;0.38;0.20;;;;;;;;;;5086064;28;20027;-80
2023/03/16 04:20:52;;;;;;;1.00;0.57;;;;;;;;;;5089842;28;20460;-84
2023/03/16 04:23:19;;;;;;;0.22;0.22;;;;;;;;;;5085954;28;20357;-80
2023/03/16 04:25:45;;;;;;;0.10;0.10;;;;;;;;;;5087187;28;20064;-84
2023/03/16 04:28:10;;;;;;;1.02;0.30;;;;;;;;;;5089339;28;20028;-85
2023/03/16 04:30:36;;;;;;;0.70;0.30;;;;;;;;;;5084711;28;20073;-82
2023/03/16 04:33:01;;;;;;;0.90;0.65;;;;;;;;;;5082410;28;20171;-82
2023/03/16 04:35:27;;;;;;;0.55;0.35;;;;;;;;;;5085932;28;20031;-84
2023/03/16 04:37:52;;;;;;;0.80;0.80;;;;;;;;;;5087892;28;20070;-82
2023/03/16 04:40:19;;;;;;;0.10;0.10;;;;;;;;;;5089590;28;20048;-82
2023/03/16 04:42:46;;;;;;;1.08;0.52;;;;;;;;;;5092817;28;20027;-80
2023/03/16 04:45:13;;;;;;;0.20;0.20;;;;;;;;;;5088532;28;20055;-83
2023/03/16 04:47:38;;;;;;;0.52;0.38;;;;;;;;;;5087599;28;20028;-84
2023/03/16 04:50:04;;;;;;;0.30;0.22;;;;;;;;;;5091969;28;20036;-81
2023/03/16 04:52:31;;;;;;;2.70;0.88;;;;;;;;;;5086662;28;20113;-83
2023/03/16 04:54:56;;;;;;;0.10;0.10;;;;;;;;;;5081632;28;20141;-81
2023/03/16 04:57:22;;;;;;;0.20;0.20;;;;;;;;;;5091934;28;20063;-82
2023/03/16 04:59:47;;;;;;;0.50;0.50;;;;;;;;;;5092392;28;20119;-81
2023/03/16 05:02:13;;;;;;;0.20;0.20;;;;;;;;;;5082874;28;20430;-82
2023/03/16 05:04:38;;;;;;;0.20;0.20;;;;;;;;;;5089121;28;20029;-82
2023/03/16 05:07:04;;;;;;;0.10;0.10;;;;;;;;;;5090187;28;20028;-83
2023/03/16 05:09:29;;;;;;;0.38;0.38;;;;;;;;;;5086033;28;20034;-81
2023/03/16 05:11:55;;;;;;;0.85;0.77;;;;;;;;;;5086155;28;20038;-82
2023/03/16 05:14:20;;;;;;;0.28;0.28;;;;;;;;;;5086891;28;20123;-82
2023/03/16 05:16:46;;;;;;;0.43;0.40;;;;;;;;;;5093840;28;20047;-84
2023/03/16 05:19:11;;;;;;;0.30;0.30;;;;;;;;;;5090889;28;20035;-81
2023/03/16 05:21:37;;;;;;;0.20;0.20;;;;;;;;;;5092164;28;20036;-81
2023/03/16 05:24:07;;;;;;;0.35;0.35;;;;;;;;;;5086254;28;20028;-80
2023/03/16 05:26:33;;;;;;;0.32;0.30;;;;;;;;;;5090663;28;20088;-80
2023/03/16 05:28:59;;;;;;;0.15;0.15;;;;;;;;;;5092801;28;20028;-80
2023/03/16 05:31:31;;;;;;;0.38;0.38;;;;;;;;;;5084973;28;20043;-81
2023/03/16 05:33:57;;;;;;;0.30;0.30;;;;;;;;;;5088614;28;20397;-81
2023/03/16 05:36:23;;;;;;;0.30;0.30;;;;;;;;;;5083409;28;20054;-82
2023/03/16 05:38:49;;;;;;;0.65;0.47;;;;;;;;;;5084356;28;20028;-82
2023/03/16 05:41:17;;;;;;;0.20;0.20;;;;;;;;;;5083813;28;20395;-81
2023/03/16 05:43:43;;;;;;;0.38;0.38;;;;;;;;;;5092455;28;20028;-79
2023/03/16 05:46:08;;;;;;;0.55;0.55;;;;;;;;;;5090661;28;20023;-78
2023/03/16 05:48:34;;;;;;;1.25;0.98;;;;;;;;;;5085432;28;20379;-80
2023/03/16 05:51:00;;;;;;;0.40;0.40;;;;;;;;;;5090326;28;20032;-80
2023/03/16 05:53:27;;;;;;;0.10;0.10;;;;;;;;;;5092961;28;20024;-78
2023/03/16 05:55:53;;;;;;;0.30;0.30;;;;;;;;;;5078265;28;20467;-78
2023/03/16 05:58:18;;;;;;;0.52;0.30;;;;;;;;;;5083339;28;20024;-80
2023/03/16 06:00:44;;;;;;;0.57;0.47;;;;;;;;;;5099437;28;20028;-81
2023/03/16 06:03:09;;;;;;;1.00;0.30;;;;;;;;;;5081890;28;20479;-78
2023/03/16 06:05:35;;;;;;;0.17;0.17;;;;;;;;;;5079864;28;20020;-79
2023/03/16 06:08:01;;;;;;;0.20;0.20;;;;;;;;;;5080628;28;20021;-78
2023/03/16 06:10:27;;;;;;;0.75;0.40;;;;;;;;;;5078641;28;20028;-82
2023/03/16 06:12:52;;;;;;;0.47;0.43;;;;;;;;;;5096203;28;20020;-80
2023/03/16 06:15:18;;;;;;;0.85;0.38;;;;;;;;;;5085115;28;20089;-79
2023/03/16 06:17:43;;;;;;;0.20;0.20;;;;;;;;;;5080676;28;20028;-77
2023/03/16 06:20:11;;;;;;;0.30;0.30;;;;;;;;;;5077604;28;20043;-79
2023/03/16 06:22:38;;;;;;;0.30;0.30;;;;;;;;;;5084935;28;20020;-77
2023/03/16 06:25:05;;;;;;;0.28;0.28;;;;;;;;;;5080741;28;20107;-77
2023/03/16 06:27:31;;;;;;;0.52;0.35;;;;;;;;;;5083901;28;20024;-79
2023/03/16 06:29:56;;;;;;;0.30;0.30;;;;;;;;;;5100594;28;20098;-81
2023/03/16 06:32:22;;;;;;;0.32;0.32;;;;;;;;;;5088656;28;20028;-81
2023/03/16 06:34:47;;;;;;;0.57;0.57;;;;;;;;;;5077657;28;20031;-78
2023/03/16 06:37:13;;;;;;;1.15;0.63;;;;;;;;;;5087726;28;20460;-80
2023/03/16 06:39:39;;;;;;;0.82;0.40;;;;;;;;;;5081570;28;20039;-78
2023/03/16 06:42:04;;;;;;;0.90;0.45;;;;;;;;;;5085398;28;20034;-78
2023/03/16 06:44:30;;;;;;;0.30;0.30;;;;;;;;;;5088797;28;20032;-79
2023/03/16 06:46:56;;;;;;;0.65;0.65;;;;;;;;;;5087900;28;20062;-79
2023/03/16 06:49:21;;;;;;;0.40;0.40;;;;;;;;;;5101781;28;20024;-78
2023/03/16 06:51:47;;;;;;;1.08;0.50;;;;;;;;;;5079234;28;20031;-77
2023/03/16 06:54:12;;;;;;;0.68;0.55;;;;;;;;;;5085773;28;20393;-77
2023/03/16 06:56:38;;;;;;;0.50;0.50;;;;;;;;;;5078207;28;20039;-81
2023/03/16 06:59:03;;;;;;;0.25;0.20;;;;;;;;;;5085095;28;20024;-79
2023/03/16 07:01:29;;;;;;;0.60;0.60;;;;;;;;;;5077556;28;20418;-81
2023/03/16 07:03:54;;;;;;;0.50;0.50;;;;;;;;;;5081436;28;20083;-80
2023/03/16 07:06:20;;;;;;;0.30;0.30;;;;;;;;;;5087636;28;20392;-82
2023/03/16 07:08:46;;;;;;;0.73;0.63;;;;;;;;;;5089327;28;20172;-82
2023/03/16 07:11:11;;;;;;;0.75;0.75;;;;;;;;;;5083149;28;20051;-79
2023/03/16 07:13:37;;;;;;;0.75;0.75;;;;;;;;;;5086160;28;20124;-79
2023/03/16 07:16:03;;;;;;;0.77;0.50;;;;;;;;;;5084815;28;20031;-80
2023/03/16 07:18:30;;;;;;;0.38;0.38;;;;;;;;;;5087903;28;20103;-81
2023/03/16 07:20:57;;;;;;;0.40;0.40;;;;;;;;;;5084288;28;20035;-79
2023/03/16 07:23:23;;;;;;;0.75;0.60;;;;;;;;;;5083165;28;20035;-80
2023/03/16 07:25:50;;;;;;;0.88;0.85;;;;;;;;;;5086677;28;20024;-82
2023/03/16 07:28:17;;;;;;;0.35;0.35;;;;;;;;;;5086171;28;20501;-82
2023/03/16 07:30:44;;;;;;;0.32;0.30;;;;;;;;;;5081302;28;20032;-81
2023/03/16 07:33:10;;;;;;;3.10;1.20;;;;;;;;;;5103326;28;20040;-83
2023/03/16 07:35:36;;;;;;;0.55;0.50;;;;;;;;;;5083936;28;20028;-80
2023/03/16 07:38:02;;;;;;;1.15;0.45;;;;;;;;;;5086470;28;20095;-83
2023/03/16 07:40:27;;;;;;;0.30;0.30;;;;;;;;;;5081333;28;20036;-80
2023/03/16 07:42:52;;;;;;;3.00;0.85;;;;;;;;;;5089508;28;20034;-81
2023/03/16 07:45:18;;;;;;;2.72;1.00;;;;;;;;;;5077968;28;20035;-83
2023/03/16 07:47:43;;;;;;;1.27;0.73;;;;;;;;;;5080878;28;20031;-80
2023/03/16 07:50:10;;;;;;;0.85;0.73;;;;;;;;;;5086994;28;20464;-80
2023/03/16 07:52:36;;;;;;;0.50;0.43;;;;;;;;;;5089610;28;20077;-81
2023/03/16 07:55:02;;;;;;;2.00;0.90;;;;;;;;;;5109340;28;20020;-79
2023/03/16 07:57:28;;;;;;;0.40;0.40;;;;;;;;;;5088729;28;20024;-80
2023/03/16 07:59:53;;;;;;;0.30;0.25;;;;;;;;;;5081809;28;20074;-80
2023/03/16 08:02:20;;;;;;;0.20;0.20;;;;;;;;;;5087218;28;20028;-79
2023/03/16 08:04:46;;;;;;;1.17;0.55;;;;;;;;;;5092112;28;20024;-80
2023/03/16 08:07:13;;;;;;;0.30;0.30;;;;;;;;;;5089254;28;20101;-83
2023/03/16 08:09:40;;;;;;;0.57;0.55;;;;;;;;;;5086112;28;20024;-80
2023/03/16 08:12:07;;;;;;;0.20;0.20;;;;;;;;;;5086006;28;20030;-80
2023/03/16 08:14:33;;;;;;;0.40;0.40;;;;;;;;;;5089467;28;20494;-83
2023/03/16 08:17:01;;;;;;;0.65;0.65;;;;;;;;;;5087392;28;20024;-81
2023/03/16 08:19:27;;;;;;;0.30;0.30;;;;;;;;;;5088549;28;20127;-82
2023/03/16 08:21:52;;;;;;;0.50;0.50;;;;;;;;;;5083777;28;20088;-81
2023/03/16 08:24:18;;;;;;;0.47;0.45;;;;;;;;;;5084780;28;20476;-78
2023/03/16 08:26:44;;;;;;;1.17;0.85;;;;;;;;;;5088347;28;20429;-81
2023/03/16 08:29:09;;;;;;;0.55;0.55;;;;;;;;;;5087149;28;20024;-79
2023/03/16 08:31:35;;;;;;;1.20;0.90;;;;;;;;;;5084801;28;20024;-80
2023/03/16 08:34:01;;;;;;;1.17;0.55;;;;;;;;;;5085260;28;20500;-79
2023/03/16 08:36:29;;;;;;;0.73;0.60;;;;;;;;;;5083653;28;20111;-77
2023/03/16 08:38:55;;;;;;;1.52;0.93;;;;;;;;;;5085333;28;20069;-77
2023/03/16 08:41:20;;;;;;;0.70;0.52;;;;;;;;;;5086062;28;20032;-80
2023/03/16 08:43:46;;;;;;;0.50;0.50;;;;;;;;;;5090176;28;20484;-78
2023/03/16 08:46:12;;;;;;;0.57;0.55;;;;;;;;;;5090925;28;20086;-78
2023/03/16 08:48:40;;;;;;;0.73;0.65;;;;;;;;;;5082012;28;20035;-77
2023/03/16 08:51:06;;;;;;;0.45;0.40;;;;;;;;;;5087185;28;20065;-76
2023/03/16 08:53:32;;;;;;;1.45;0.80;;;;;;;;;;5080629;28;20020;-78
2023/03/16 08:56:05;;;;;;;1.17;0.63;;;;;;;;;;5090443;28;20386;-78
2023/03/16 08:58:34;;;;;;;0.75;0.65;;;;;;;;;;5083699;28;20031;-80
2023/03/16 09:01:01;;;;;;;1.13;0.90;;;;;;;;;;5087092;28;20020;-78
2023/03/16 09:03:27;;;;;;;0.50;0.50;;;;;;;;;;5079420;28;20064;-79
2023/03/16 09:05:53;;;;;;;1.50;1.05;;;;;;;;;;5087900;28;20086;-78
2023/03/16 09:08:19;;;;;;;0.93;0.68;;;;;;;;;;5093089;28;20044;-79
2023/03/16 09:10:45;;;;;;;1.33;1.23;;;;;;;;;;5090400;28;20460;-77
2023/03/16 09:13:11;;;;;;;1.70;1.40;;;;;;;;;;5088495;28;20028;-78
2023/03/16 09:15:37;;;;;;;3.92;1.13;;;;;;;;;;5086531;28;20039;-78
2023/03/16 09:18:04;;;;;;;1.30;1.10;;;;;;;;;;5092597;28;20495;-76
2023/03/16 09:20:30;;;;;;;0.93;0.65;;;;;;;;;;5088452;28;20177;-78
2023/03/16 09:22:56;;;;;;;0.55;0.50;;;;;;;;;;5085794;28;20103;-77
2023/03/16 09:25:24;;;;;;;1.13;0.90;;;;;;;;;;5089222;28;20035;-76
2023/03/16 09:27:50;;;;;;;4.75;1.73;;;;;;;;;;5077776;28;20528;-77
2023/03/16 09:30:15;;;;;;;5.95;5.22;;;;;;;;;;5087464;28;20111;-78
2023/03/16 09:32:41;;;;;;;5.55;2.58;;;;;;;;;;5090196;28;20048;-78
2023/03/16 09:35:07;;;;;;;1.25;1.17;;;;;;;;;;5086165;28;20059;-77
2023/03/16 09:37:33;;;;;;;3.15;0.93;;;;;;;;;;5084594;28;20064;-77
2023/03/16 09:40:00;;;;;;;3.10;1.30;;;;;;;;;;5089910;28;20103;-79
2023/03/16 09:42:37;;;;;;;1.02;0.95;;;;;;;;;;5080944;28;20032;-78
2023/03/16 09:45:31;;;;;;;1.17;1.08;;;;;;;;;;5088670;28;20096;-79
2023/03/16 09:48:01;;;;;;;1.60;1.17;;;;;;;;;;5089107;28;20035;-80
2023/03/16 09:50:32;;;;;;;2.05;1.63;;;;;;;;;;5083199;28;20492;-78
2023/03/16 09:53:04;;;;;;;0.30;0.30;;;;;;;;;;5088481;28;20023;-79
2023/03/16 09:55:34;;;;;;;0.82;0.82;;;;;;;;;;5085603;28;20384;-80
2023/03/16 09:58:03;;;;;;;1.70;1.35;;;;;;;;;;5085329;28;20110;-79
2023/03/16 10:00:36;;;;;;;3.90;1.77;;;;;;;;;;5088755;28;20040;-79
2023/03/16 10:03:20;;;;;;;0.57;0.50;;;;;;;;;;5080699;28;20023;-77
2023/03/16 10:05:48;;;;;;;2.75;2.53;;;;;;;;;;5080441;28;20027;-78
2023/03/16 10:08:17;;;;;;;1.17;0.90;;;;;;;;;;5082149;28;20437;-79
2023/03/16 10:10:55;;;;;;;1.52;1.42;;;;;;;;;;5086659;28;20028;-79
2023/03/16 10:13:33;;;;;;;1.45;0.98;;;;;;;;;;5086953;28;20051;-82
2023/03/16 10:16:03;;;;;;;1.88;1.10;;;;;;;;;;5085715;28;20024;-81
2023/03/16 10:18:37;;;;;;;0.40;0.40;;;;;;;;;;5091857;28;20106;-79
2023/03/16 10:21:04;;;;;;;1.30;0.98;;;;;;;;;;5085760;28;20395;-79
2023/03/16 10:23:33;;;;;;;1.00;0.88;;;;;;;;;;5088737;28;20560;-82
2023/03/16 10:25:58;;;;;;;4.68;2.35;;;;;;;;;;5085911;28;20028;-82
2023/03/16 10:28:28;;;;;;;0.98;0.60;;;;;;;;;;5090365;28;20039;-77
2023/03/16 10:30:56;;;;;;;0.98;0.50;;;;;;;;;;5082249;28;20025;-81
2023/03/16 10:33:30;;;;;;;1.40;1.10;;;;;;;;;;5087380;28;20044;-81
2023/03/16 10:36:02;;;;;;;1.20;1.08;;;;;;;;;;5087782;28;20464;-81
2023/03/16 10:38:48;;;;;;;1.30;1.20;;;;;;;;;;5107011;28;20020;-82
2023/03/16 10:41:26;;;;;;;1.98;1.30;;;;;;;;;;5081079;28;20357;-79
2023/03/16 10:44:07;;;;;;;2.30;0.88;;;;;;;;;;5084235;28;20028;-82
2023/03/16 10:46:47;;;;;;;1.77;1.60;;;;;;;;;;5086834;28;20027;-81
2023/03/16 10:49:24;;;;;;;2.20;1.35;;;;;;;;;;5100330;28;20093;-80
2023/03/16 10:51:52;;;;;;;0.73;0.73;;;;;;;;;;5088464;28;20468;-84
2023/03/16 10:54:26;;;;;;;3.33;1.55;;;;;;;;;;5086922;28;20176;-77
2023/03/16 10:56:51;;;;;;;1.15;0.93;;;;;;;;;;5088087;28;20051;-79
2023/03/16 10:59:37;;;;;;;3.60;1.13;;;;;;;;;;5081276;28;20135;-79
2023/03/16 11:02:29;;;;;;;0.90;0.88;;;;;;;;;;5081707;28;20427;-81
2023/03/16 11:04:56;;;;;;;11.18;5.85;;;;;;;;;;5084380;28;20521;-79
2023/03/16 11:07:22;;;;;;;1.08;0.98;;;;;;;;;;5088296;28;20032;-81
2023/03/16 11:09:53;;;;;;;2.67;1.52;;;;;;;;;;5082284;28;20105;-81
2023/03/16 11:12:24;;;;;;;1.13;0.90;;;;;;;;;;5081217;28;20085;-79
2023/03/16 11:14:49;;;;;;;1.63;1.15;;;;;;;;;;5085749;28;20473;-77
2023/03/16 11:17:27;;;;;;;0.88;0.77;;;;;;;;;;5084593;28;20106;-83
2023/03/16 11:19:59;;;;;;;2.15;0.57;;;;;;;;;;5086694;28;20467;-82
2023/03/16 11:22:26;;;;;;;0.40;0.40;;;;;;;;;;5103468;28;20032;-81
2023/03/16 11:25:01;;;;;;;1.33;1.10;;;;;;;;;;5082566;28;20451;-78
2023/03/16 11:27:50;;;;;;;0.75;0.60;;;;;;;;;;5082671;28;20028;-80
2023/03/16 11:30:25;;;;;;;1.15;0.95;;;;;;;;;;5080956;28;20043;-79
2023/03/16 11:32:52;;;;;;;4.90;0.95;;;;;;;;;;5080438;28;20079;-78
2023/03/16 11:35:36;;;;;;;4.10;2.08;;;;;;;;;;5077015;28;20089;-80
2023/03/16 11:38:20;;;;;;;1.95;0.65;;;;;;;;;;5098659;28;20023;-78
2023/03/16 11:40:52;;;;;;;3.65;1.77;;;;;;;;;;5086856;28;20069;-80
2023/03/16 11:43:33;;;;;;;1.50;1.02;;;;;;;;;;5084877;28;20157;-78
2023/03/16 11:46:24;;;;;;;2.55;1.48;;;;;;;;;;5083487;28;20059;-79
2023/03/16 11:49:10;;;;;;;3.45;2.20;;;;;;;;;;5081979;28;20040;-78
2023/03/16 11:51:51;;;;;;;8.32;2.53;;;;;;;;;;5083311;28;20044;-78
2023/03/16 11:54:32;;;;;;;2.65;2.45;;;;;;;;;;5084320;28;20063;-79
2023/03/16 11:57:16;;;;;;;3.67;2.22;;;;;;;;;;5081852;28;20036;-78
2023/03/16 11:59:50;;;;;;;3.38;1.77;;;;;;;;;;5077633;28;20036;-78
2023/03/16 12:02:31;;;;;;;4.57;2.45;;;;;;;;;;5086356;28;20024;-79
2023/03/16 12:05:25;;;;;;;2.40;1.52;;;;;;;;;;5088284;28;20039;-78
2023/03/16 12:08:03;;;;;;;0.82;0.68;;;;;;;;;;5100299;28;20028;-78
2023/03/16 12:10:40;;;;;;;2.20;1.48;;;;;;;;;;5083414;28;20023;-77
2023/03/16 12:13:32;;;;;;;4.18;2.08;;;;;;;;;;5081334;28;20383;-78
2023/03/16 12:16:26;;;;;;;5.38;2.33;;;;;;;;;;5081464;28;20044;-78
2023/03/16 12:19:00;;;;;;;2.63;1.45;;;;;;;;;;5086431;28;20114;-78
2023/03/16 12:21:30;;;;;;;4.82;3.05;;;;;;;;;;5077191;28;20102;-78
2023/03/16 12:23:58;;;;;;;;;;;;;;;;;;5083324;28;20414;-80
2023/03/16 12:26:29;;;;;;;3.20;2.40;;;;;;;;;;5087365;28;19912;-79
2023/03/16 12:28:56;;;;;;;2.17;1.30;;;;;;;;;;5077834;28;20836;-78
2023/03/16 12:31:51;;;;;;;1.23;1.08;;;;;;;;;;5085270;28;20028;-81
2023/03/16 12:34:39;;;;;;;2.42;2.00;;;;;;;;;;5085525;28;20413;-80
2023/03/16 12:37:18;;;;;;;10.32;2.00;;;;;;;;;;5091434;28;20391;-79
2023/03/16 12:39:52;;;;;;;2.97;1.88;;;;;;;;;;5090064;28;20039;-79
2023/03/16 12:42:41;;;;;;;2.50;1.77;;;;;;;;;;5089455;28;20051;-79
2023/03/16 12:45:06;;;;;;;1.80;1.10;;;;;;;;;;5080413;28;20502;-79
2023/03/16 12:47:52;;;;;;;2.97;2.30;;;;;;;;;;5089816;28;20024;-80
2023/03/16 12:50:19;;;;;;;2.42;2.00;;;;;;;;;;5105926;28;20036;-78
2023/03/16 12:52:47;;;;;;;2.50;1.75;;;;;;;;;;5082303;28;20028;-77
2023/03/16 12:55:38;;;;;;;2.88;1.10;;;;;;;;;;5086179;28;20071;-81
2023/03/16 12:58:06;;;;;;;2.10;1.48;;;;;;;;;;5087059;28;20056;-79
2023/03/16 13:00:39;;;;;;;2.25;1.40;;;;;;;;;;5078505;28;20103;-78
2023/03/16 13:03:10;;;;;;;3.17;2.20;;;;;;;;;;5086173;28;20035;-77
2023/03/16 13:05:43;;;;;;;1.15;1.02;;;;;;;;;;5086432;28;20376;-80
2023/03/16 13:08:14;;;;;;;1.23;1.13;;;;;;;;;;5082838;28;20161;-79
2023/03/16 13:10:40;;;;;;;3.03;1.80;;;;;;;;;;5085592;28;20036;-79
2023/03/16 13:13:14;;;;;;;2.00;1.55;;;;;;;;;;5079642;28;20016;-79
2023/03/16 13:15:43;;;;;;;1.65;1.23;;;;;;;;;;5085597;28;20027;-79
2023/03/16 13:18:22;;;;;;;1.65;1.55;;;;;;;;;;5081177;28;20025;-79
2023/03/16 13:20:55;;;;;;;4.88;2.63;;;;;;;;;;5088118;28;20122;-79
2023/03/16 13:23:39;;;;;;;4.20;2.50;;;;;;;;;;5087774;28;20411;-78
2023/03/16 13:26:26;;;;;;;1.63;1.52;;;;;;;;;;5082017;28;20028;-80
2023/03/16 13:28:53;;;;;;;2.28;1.83;;;;;;;;;;5088917;28;20067;-77
2023/03/16 13:31:36;;;;;;;4.65;2.78;;;;;;;;;;5084398;28;20028;-78
2023/03/16 13:34:02;;;;;;;5.97;3.40;;;;;;;;;;5085744;28;20044;-78
2023/03/16 13:36:29;;;;;;;4.30;2.08;;;;;;;;;;5080964;28;20522;-81
2023/03/16 13:39:19;;;;;;;1.50;1.08;;;;;;;;;;5090042;28;20016;-80
2023/03/16 13:41:58;;;;;;;2.38;1.73;;;;;;;;;;5084272;28;20028;-79
2023/03/16 13:44:25;;;;;;;1.30;1.20;;;;;;;;;;5104622;28;20028;-79
2023/03/16 13:46:50;;;;;;;4.80;2.38;;;;;;;;;;5080025;28;20034;-81
2023/03/16 13:49:17;;;;;;;3.60;2.08;;;;;;;;;;5081933;28;20387;-77
2023/03/16 13:51:45;;;;;;;2.78;1.48;;;;;;;;;;5090771;28;20429;-81
2023/03/16 13:54:26;;;;;;;4.13;2.65;;;;;;;;;;5076593;28;20039;-79
2023/03/16 13:56:56;;;;;;;3.20;1.77;;;;;;;;;;5088320;28;20495;-80
2023/03/16 13:59:22;;;;;;;5.50;3.60;;;;;;;;;;5081113;28;20158;-79
2023/03/16 14:01:55;;;;;;;2.45;2.13;;;;;;;;;;5086900;28;20081;-78
2023/03/16 14:04:22;;;;;;;3.85;3.20;;;;;;;;;;5081679;28;20047;-79
2023/03/16 14:07:00;;;;;;;7.95;2.58;;;;;;;;;;5088961;28;20032;-80
2023/03/16 14:09:32;;;;;;;3.63;2.55;;;;;;;;;;5076926;28;20385;-78
2023/03/16 14:11:57;;;;;;;2.10;1.58;;;;;;;;;;5086368;28;20114;-79
2023/03/16 14:14:48;;;;;;;4.38;2.75;;;;;;;;;;5086629;28;20489;-80
2023/03/16 14:17:20;;;;;;;3.17;2.13;;;;;;;;;;5079741;28;20036;-80
2023/03/16 14:19:57;;;;;;;3.53;2.97;;;;;;;;;;5080498;28;20032;-79
2023/03/16 14:22:28;;;;;;;3.75;2.47;;;;;;;;;;5084595;28;20020;-81
2023/03/16 14:24:57;;;;;;;2.65;1.52;;;;;;;;;;5079966;28;20021;-82
2023/03/16 14:27:38;;;;;;;5.60;3.55;;;;;;;;;;5082495;28;20055;-83
2023/03/16 14:30:15;;;;;;;3.08;1.95;;;;;;;;;;5102657;28;20479;-81
2023/03/16 14:32:41;;;;;;;4.38;2.33;;;;;;;;;;5086455;28;20044;-81
2023/03/16 14:35:15;;;;;;;4.22;1.95;;;;;;;;;;5090361;28;20031;-82
2023/03/16 14:37:42;;;;;;;6.30;2.40;;;;;;;;;;5081421;28;20481;-80
2023/03/16 14:40:26;;;;;;;2.78;1.48;;;;;;;;;;5087359;28;20072;-79
2023/03/16 14:42:53;;;;;;;3.53;2.50;;;;;;;;;;5081917;28;20038;-84
2023/03/16 14:45:20;;;;;;;9.95;2.70;;;;;;;;;;5085949;28;20024;-83
2023/03/16 14:47:47;;;;;;;4.57;2.33;;;;;;;;;;5085850;28;20039;-82
2023/03/16 14:50:24;;;;;;;8.25;4.75;;;;;;;;;;5084786;28;20028;-82
2023/03/16 14:52:51;;;;;;;2.78;2.35;;;;;;;;;;5083192;28;20059;-79
2023/03/16 14:55:18;;;;;;;3.05;2.03;;;;;;;;;;5083862;28;20107;-79
2023/03/16 14:57:44;;;;;;;11.90;6.15;;;;;;;;;;5087018;28;20020;-79